createdAt,value
2019-05-18T00:00:01.285Z,85.20
2019-05-18T00:02:27.510Z,85.30
2019-05-18T00:04:53.785Z,85.40
2019-05-18T00:07:20.010Z,85.60
2019-05-18T00:09:46.274Z,85.60
2019-05-18T00:12:12.510Z,85.50
2019-05-18T00:14:38.750Z,85.50
2019-05-18T00:17:07.879Z,85.50
2019-05-18T00:19:33.103Z,85.60
2019-05-18T00:21:59.378Z,85.70
2019-05-18T00:24:25.613Z,85.70
2019-05-18T00:26:51.849Z,85.60
2019-05-18T00:29:18.082Z,85.60
2019-05-18T00:31:58.897Z,85.70
2019-05-18T00:34:25.107Z,85.70
2019-05-18T00:36:51.340Z,85.80
2019-05-18T00:39:17.599Z,85.80
2019-05-18T00:41:45.554Z,85.80
2019-05-18T00:44:11.986Z,85.80
2019-05-18T00:46:38.218Z,85.80
2019-05-18T00:49:04.550Z,85.80
2019-05-18T00:51:30.793Z,85.90
2019-05-18T00:53:57.014Z,85.90
2019-05-18T00:56:23.288Z,85.90
2019-05-18T00:58:49.524Z,86.10
2019-05-18T01:01:15.772Z,86.20
2019-05-18T01:03:42.008Z,86.40
2019-05-18T01:06:08.246Z,86.60
2019-05-18T01:08:34.478Z,86.60
2019-05-18T01:11:00.706Z,86.80
2019-05-18T01:13:26.977Z,87.00
2019-05-18T01:15:53.206Z,87.80
2019-05-18T01:18:19.662Z,87.20
2019-05-18T01:20:45.886Z,87.20
2019-05-18T01:23:12.211Z,88.10
2019-05-18T01:25:38.463Z,88.10
2019-05-18T01:28:04.794Z,88.40
2019-05-18T01:30:31.165Z,88.50
2019-05-18T01:32:57.395Z,88.50
2019-05-18T01:35:23.747Z,88.60
2019-05-18T01:37:50.005Z,88.80
2019-05-18T01:40:16.842Z,88.90
2019-05-18T01:42:43.091Z,88.90
2019-05-18T01:45:16.769Z,89.00
2019-05-18T01:48:12.236Z,88.90
2019-05-18T01:50:25.024Z,89.00
2019-05-18T01:52:51.267Z,89.10
2019-05-18T01:55:17.495Z,89.10
2019-05-18T01:57:43.737Z,89.20
2019-05-18T02:00:11.280Z,89.20
2019-05-18T02:02:37.542Z,89.30
2019-05-18T02:05:04.899Z,89.30
2019-05-18T02:07:31.116Z,89.30
2019-05-18T02:09:57.366Z,89.30
2019-05-18T02:12:23.601Z,89.30
2019-05-18T02:14:49.829Z,89.30
2019-05-18T02:17:16.064Z,89.20
2019-05-18T02:19:42.336Z,89.40
2019-05-18T02:22:08.623Z,89.40
2019-05-18T02:24:34.945Z,89.30
2019-05-18T02:27:01.207Z,90.00
2019-05-18T02:29:27.443Z,89.30
2019-05-18T02:31:53.678Z,89.30
2019-05-18T02:34:19.908Z,89.20
2019-05-18T02:36:46.188Z,89.20
2019-05-18T02:39:12.411Z,89.10
2019-05-18T02:41:38.646Z,89.20
2019-05-18T02:44:05.280Z,89.20
2019-05-18T02:46:31.522Z,89.40
2019-05-18T02:48:57.763Z,89.50
2019-05-18T02:51:23.989Z,89.60
2019-05-18T02:53:50.256Z,89.80
2019-05-18T02:56:16.501Z,89.90
2019-05-18T02:58:42.724Z,90.00
2019-05-18T03:01:08.974Z,90.10
2019-05-18T03:03:35.474Z,90.10
2019-05-18T03:06:01.912Z,90.10
2019-05-18T03:08:28.254Z,90.20
2019-05-18T03:10:54.738Z,90.20
2019-05-18T03:13:21.175Z,90.20
2019-05-18T03:15:47.647Z,90.10
2019-05-18T03:18:13.886Z,90.20
2019-05-18T03:20:40.118Z,90.20
2019-05-18T03:23:06.457Z,90.20
2019-05-18T03:25:32.694Z,90.20
2019-05-18T03:27:59.315Z,90.10
2019-05-18T03:30:25.538Z,90.10
2019-05-18T03:32:52.295Z,90.10
2019-05-18T03:35:18.660Z,90.10
2019-05-18T03:37:45.477Z,90.10
2019-05-18T03:40:12.322Z,90.10
2019-05-18T03:42:38.542Z,90.10
2019-05-18T03:45:05.941Z,90.10
2019-05-18T03:47:32.272Z,90.10
2019-05-18T03:49:58.534Z,90.10
2019-05-18T03:52:24.795Z,90.20
2019-05-18T03:54:51.064Z,90.30
2019-05-18T03:57:17.539Z,90.30
2019-05-18T03:59:43.788Z,90.40
2019-05-18T04:02:10.044Z,90.70
2019-05-18T04:04:36.284Z,90.50
2019-05-18T04:07:02.544Z,90.50
2019-05-18T04:09:29.216Z,90.60
2019-05-18T04:11:55.453Z,90.70
2019-05-18T04:14:21.697Z,90.70
2019-05-18T04:16:47.963Z,90.70
2019-05-18T04:19:14.322Z,90.80
2019-05-18T04:21:40.870Z,90.80
2019-05-18T04:24:07.103Z,90.80
2019-05-18T04:26:33.326Z,90.90
2019-05-18T04:28:59.572Z,91.00
2019-05-18T04:31:25.796Z,91.30
2019-05-18T04:33:52.014Z,91.40
2019-05-18T04:36:18.304Z,90.90
2019-05-18T04:38:44.541Z,90.90
2019-05-18T04:41:10.785Z,90.80
2019-05-18T04:43:37.059Z,89.30
2019-05-18T04:46:03.336Z,85.90
2019-05-18T04:48:29.564Z,83.60
2019-05-18T04:50:55.807Z,81.60
2019-05-18T04:53:22.095Z,79.90
2019-05-18T04:55:48.312Z,78.50
2019-05-18T04:58:14.565Z,76.40
2019-05-18T05:00:41.179Z,73.40
2019-05-18T05:03:07.375Z,72.10
2019-05-18T05:05:33.594Z,70.60
2019-05-18T05:07:59.838Z,69.60
2019-05-18T05:10:26.223Z,67.50
2019-05-18T05:12:52.715Z,65.30
2019-05-18T05:15:19.247Z,62.10
2019-05-18T05:17:45.482Z,60.00
2019-05-18T05:20:19.856Z,58.10
2019-05-18T05:22:42.034Z,56.90
2019-05-18T05:25:08.773Z,54.80
2019-05-18T05:27:35.043Z,53.50
2019-05-18T05:30:05.607Z,52.40
2019-05-18T05:32:32.173Z,50.70
2019-05-18T05:34:58.408Z,49.10
2019-05-18T05:37:24.940Z,48.70
2019-05-18T05:39:51.170Z,48.90
2019-05-18T05:42:17.520Z,47.20
2019-05-18T05:44:43.776Z,46.10
2019-05-18T05:47:10.027Z,45.60
2019-05-18T05:49:36.291Z,45.00
2019-05-18T05:52:02.729Z,44.60
2019-05-18T05:54:28.959Z,44.40
2019-05-18T05:56:55.191Z,44.10
2019-05-18T05:59:21.442Z,43.90
2019-05-18T06:01:47.703Z,44.00
2019-05-18T06:04:13.934Z,43.80
2019-05-18T06:06:40.177Z,44.00
2019-05-18T06:09:06.499Z,43.50
2019-05-18T06:11:32.760Z,43.30
2019-05-18T06:13:58.986Z,42.80
2019-05-18T06:16:25.543Z,42.90
2019-05-18T06:18:51.820Z,42.80
2019-05-18T06:21:18.074Z,42.60
2019-05-18T06:23:44.333Z,41.90
2019-05-18T06:26:10.584Z,42.10
2019-05-18T06:28:36.814Z,42.30
2019-05-18T06:31:03.179Z,41.60
2019-05-18T06:33:29.406Z,42.20
2019-05-18T06:35:55.693Z,41.80
2019-05-18T06:38:21.938Z,42.30
2019-05-18T06:40:48.188Z,41.80
2019-05-18T06:43:14.415Z,41.60
2019-05-18T06:45:40.676Z,41.70
2019-05-18T06:48:06.934Z,41.40
2019-05-18T06:50:33.165Z,41.00
2019-05-18T06:52:59.436Z,41.10
2019-05-18T06:55:26.376Z,41.10
2019-05-18T06:57:56.692Z,40.80
2019-05-18T07:00:23.790Z,41.40
2019-05-18T07:02:50.067Z,40.30
2019-05-18T07:05:16.286Z,39.60
2019-05-18T07:07:42.817Z,39.40
2019-05-18T07:10:10.208Z,39.20
2019-05-18T07:12:36.454Z,39.70
2019-05-18T07:15:06.317Z,39.40
2019-05-18T07:17:34.597Z,38.80
2019-05-18T07:20:00.860Z,40.00
2019-05-18T07:22:27.082Z,39.80
2019-05-18T07:27:39.788Z,39.60
2019-05-18T07:30:08.491Z,39.20
2019-05-18T07:32:34.820Z,39.50
2019-05-18T07:35:01.063Z,39.20
2019-05-18T07:37:27.427Z,39.80
2019-05-18T07:39:53.668Z,39.70
2019-05-18T07:42:19.917Z,39.30
2019-05-18T07:44:46.465Z,39.70
2019-05-18T07:47:12.721Z,39.30
2019-05-18T07:49:38.946Z,40.40
2019-05-18T07:52:05.199Z,40.60
2019-05-18T07:54:31.427Z,40.40
2019-05-18T07:56:57.662Z,39.10
2019-05-18T07:59:23.999Z,39.50
2019-05-18T08:01:50.310Z,40.90
2019-05-18T08:04:16.540Z,40.30
2019-05-18T08:06:42.791Z,40.80
2019-05-18T08:09:09.221Z,40.90
2019-05-18T08:11:35.456Z,40.70
2019-05-18T08:14:01.699Z,42.00
2019-05-18T08:16:27.936Z,41.90
2019-05-18T08:18:54.173Z,41.80
2019-05-18T08:21:20.437Z,42.10
2019-05-18T08:23:46.715Z,41.40
2019-05-18T08:26:12.910Z,42.10
2019-05-18T08:28:39.161Z,41.90
2019-05-18T08:31:05.396Z,42.10
2019-05-18T08:33:31.735Z,42.90
2019-05-18T08:35:58.416Z,42.90
2019-05-18T08:38:24.684Z,42.00
2019-05-18T08:40:50.912Z,42.80
2019-05-18T08:43:17.163Z,42.40
2019-05-18T08:45:43.859Z,43.40
2019-05-18T08:48:10.043Z,42.50
2019-05-18T08:50:36.279Z,44.70
2019-05-18T08:53:02.659Z,44.00
2019-05-18T08:55:28.913Z,44.40
2019-05-18T08:57:55.247Z,43.20
2019-05-18T09:00:21.898Z,44.20
2019-05-18T09:02:48.956Z,42.90
2019-05-18T09:05:16.180Z,42.40
2019-05-18T09:07:42.989Z,41.60
2019-05-18T09:10:11.314Z,41.40
2019-05-18T09:12:38.039Z,41.10
2019-05-18T09:15:08.991Z,41.40
2019-05-18T09:17:37.918Z,40.40
2019-05-18T09:20:06.818Z,40.10
2019-05-18T09:22:33.871Z,42.10
2019-05-18T09:25:00.690Z,42.30
2019-05-18T09:27:27.090Z,42.60
2019-05-18T09:29:54.230Z,43.10
2019-05-18T09:32:21.065Z,43.70
2019-05-18T09:34:47.971Z,44.00
2019-05-18T09:37:14.951Z,43.20
2019-05-18T09:39:42.242Z,42.80
2019-05-18T09:42:09.100Z,41.90
2019-05-18T09:44:36.166Z,43.30
2019-05-18T09:47:02.677Z,43.00
2019-05-18T09:49:28.900Z,43.00
2019-05-18T09:52:15.110Z,42.60
2019-05-18T09:54:41.346Z,41.80
2019-05-18T09:57:07.700Z,41.30
2019-05-18T09:59:33.934Z,42.20
2019-05-18T10:02:00.207Z,41.90
2019-05-18T10:04:26.462Z,43.40
2019-05-18T10:06:53.151Z,43.80
2019-05-18T10:09:19.417Z,42.60
2019-05-18T10:11:45.645Z,43.90
2019-05-18T10:14:11.891Z,42.20
2019-05-18T10:16:38.137Z,42.70
2019-05-18T10:19:04.417Z,42.10
2019-05-18T10:21:30.720Z,41.40
2019-05-18T10:23:56.931Z,40.10
2019-05-18T10:26:23.186Z,41.80
2019-05-18T10:28:49.460Z,42.70
2019-05-18T10:31:15.731Z,42.00
2019-05-18T10:33:41.972Z,43.00
2019-05-18T10:36:11.465Z,43.30
2019-05-18T10:38:36.605Z,46.10
2019-05-18T10:41:03.134Z,45.00
2019-05-18T10:43:29.415Z,49.00
2019-05-18T10:45:55.659Z,47.50
2019-05-18T10:48:22.062Z,45.30
2019-05-18T10:50:48.301Z,46.70
2019-05-18T10:53:27.761Z,44.70
2019-05-18T10:55:44.047Z,44.30
2019-05-18T10:58:10.287Z,47.90
2019-05-18T11:00:36.707Z,47.30
2019-05-18T11:03:03.174Z,46.90
2019-05-18T11:05:29.524Z,47.40
2019-05-18T11:07:55.755Z,47.90
2019-05-18T11:10:28.853Z,47.40
2019-05-18T11:12:55.103Z,48.30
2019-05-18T11:15:22.104Z,48.00
2019-05-18T11:17:48.966Z,47.80
2019-05-18T11:20:17.691Z,45.00
2019-05-18T11:22:44.073Z,44.20
2019-05-18T11:25:11.608Z,44.50
2019-05-18T11:27:38.105Z,43.80
2019-05-18T11:30:06.560Z,43.00
2019-05-18T11:32:32.892Z,44.60
2019-05-18T11:34:59.221Z,45.70
2019-05-18T11:37:25.427Z,47.80
2019-05-18T11:39:51.664Z,47.50
2019-05-18T11:42:17.897Z,47.90
2019-05-18T11:44:44.202Z,48.50
2019-05-18T11:47:10.430Z,48.50
2019-05-18T11:49:36.692Z,48.10
2019-05-18T11:52:03.015Z,48.10
2019-05-18T11:54:29.230Z,48.80
2019-05-18T11:56:55.531Z,49.20
2019-05-18T11:59:21.727Z,50.30
2019-05-18T12:01:48.008Z,49.60
2019-05-18T12:04:14.247Z,49.80
2019-05-18T12:06:40.573Z,50.40
2019-05-18T12:09:06.830Z,49.00
2019-05-18T12:11:33.047Z,48.00
2019-05-18T12:13:59.441Z,47.60
2019-05-18T12:16:25.681Z,48.70
2019-05-18T12:18:51.955Z,47.50
2019-05-18T12:21:18.193Z,45.40
2019-05-18T12:23:44.453Z,45.20
2019-05-18T12:26:10.714Z,45.40
2019-05-18T12:28:37.207Z,46.20
2019-05-18T12:31:03.508Z,46.70
2019-05-18T12:33:29.730Z,46.00
2019-05-18T12:35:56.027Z,47.30
2019-05-18T12:38:22.256Z,48.80
2019-05-18T12:40:49.791Z,49.10
2019-05-18T12:43:16.152Z,45.70
2019-05-18T12:45:42.579Z,45.50
2019-05-18T12:48:08.808Z,45.60
2019-05-18T12:50:36.488Z,43.40
2019-05-18T12:53:02.964Z,43.50
2019-05-18T12:55:29.207Z,42.50
2019-05-18T12:58:00.617Z,43.50
2019-05-18T13:00:28.505Z,43.90
2019-05-18T13:02:56.395Z,43.40
2019-05-18T13:05:24.226Z,41.40
2019-05-18T13:07:51.720Z,40.90
2019-05-18T13:10:23.456Z,40.40
2019-05-18T13:12:53.269Z,39.30
2019-05-18T13:15:24.960Z,40.40
2019-05-18T13:17:51.638Z,37.50
2019-05-18T13:20:18.998Z,38.20
2019-05-18T13:22:45.530Z,37.70
2019-05-18T13:25:12.464Z,36.80
2019-05-18T13:27:40.215Z,35.80
2019-05-18T13:30:10.650Z,36.30
2019-05-18T13:32:36.911Z,36.70
2019-05-18T13:35:08.271Z,36.80
2019-05-18T13:37:34.509Z,36.90
2019-05-18T13:40:01.051Z,36.80
2019-05-18T13:42:27.294Z,36.70
2019-05-18T13:44:53.747Z,38.50
2019-05-18T13:47:19.997Z,37.60
2019-05-18T13:49:46.262Z,37.40
2019-05-18T13:52:15.792Z,36.00
2019-05-18T13:54:43.075Z,36.90
2019-05-18T13:57:09.311Z,36.00
2019-05-18T13:59:35.562Z,35.20
2019-05-18T14:02:01.873Z,36.70
2019-05-18T14:04:28.197Z,35.90
2019-05-18T14:06:54.523Z,34.40
2019-05-18T14:09:20.753Z,35.70
2019-05-18T14:11:47.130Z,36.00
2019-05-18T14:14:13.369Z,36.10
2019-05-18T14:16:39.724Z,35.30
2019-05-18T14:19:06.006Z,34.60
2019-05-18T14:21:32.246Z,35.70
2019-05-18T14:23:59.690Z,35.70
2019-05-18T14:26:26.059Z,36.00
2019-05-18T14:28:53.839Z,36.40
2019-05-18T14:31:26.193Z,35.90
2019-05-18T14:33:59.965Z,36.20
2019-05-18T14:36:32.301Z,35.40
2019-05-18T14:38:59.582Z,35.30
2019-05-18T14:41:25.880Z,35.80
2019-05-18T14:43:52.136Z,35.70
2019-05-18T14:46:19.383Z,35.80
2019-05-18T14:48:45.863Z,35.60
2019-05-18T14:51:16.905Z,36.10
2019-05-18T14:53:43.831Z,36.30
2019-05-18T14:56:10.099Z,36.70
2019-05-18T14:58:36.340Z,36.30
2019-05-18T15:01:02.931Z,36.50
2019-05-18T15:03:29.154Z,35.90
2019-05-18T15:05:56.041Z,36.50
2019-05-18T15:08:23.026Z,36.60
2019-05-18T15:10:50.040Z,36.90
2019-05-18T15:13:17.184Z,37.00
2019-05-18T15:15:44.237Z,36.90
2019-05-18T15:18:10.510Z,37.20
2019-05-18T15:20:37.519Z,37.80
2019-05-18T15:23:03.833Z,37.60
2019-05-18T15:25:30.085Z,38.10
2019-05-18T15:27:56.391Z,38.60
2019-05-18T15:30:23.944Z,38.70
2019-05-18T15:32:50.288Z,38.60
2019-05-18T15:35:17.030Z,38.20
2019-05-18T15:37:43.976Z,38.20
2019-05-18T15:40:12.368Z,38.40
2019-05-18T15:42:38.617Z,38.00
2019-05-18T15:45:06.462Z,38.30
2019-05-18T15:47:32.674Z,38.50
2019-05-18T15:49:58.945Z,38.20
2019-05-18T15:52:25.175Z,39.10
2019-05-18T15:54:52.291Z,39.70
2019-05-18T15:57:19.563Z,40.00
2019-05-18T15:59:45.803Z,39.90
2019-05-18T16:02:12.582Z,39.80
2019-05-18T16:04:38.910Z,38.90
2019-05-18T16:07:06.743Z,39.90
2019-05-18T16:09:33.023Z,38.60
2019-05-18T16:11:59.256Z,39.30
2019-05-18T16:14:25.603Z,39.40
2019-05-18T16:16:54.912Z,40.10
2019-05-18T16:19:20.075Z,39.80
2019-05-18T16:21:46.313Z,39.40
2019-05-18T16:24:12.609Z,39.10
2019-05-18T16:26:38.953Z,39.80
2019-05-18T16:29:05.286Z,39.30
2019-05-18T16:31:31.544Z,39.60
2019-05-18T16:33:57.798Z,40.20
2019-05-18T16:36:24.094Z,40.40
2019-05-18T16:38:52.298Z,40.60
2019-05-18T16:41:18.538Z,40.30
2019-05-18T16:43:44.792Z,41.10
2019-05-18T16:46:11.155Z,40.40
2019-05-18T16:48:39.552Z,40.70
2019-05-18T16:51:05.808Z,41.30
2019-05-18T16:53:32.061Z,41.10
2019-05-18T16:55:58.313Z,40.90
2019-05-18T16:58:25.964Z,41.20
2019-05-18T17:00:52.324Z,42.10
2019-05-18T17:03:18.662Z,41.80
2019-05-18T17:05:45.256Z,42.30
2019-05-18T17:08:11.505Z,41.90
2019-05-18T17:10:37.766Z,41.80
2019-05-18T17:13:04.120Z,42.00
2019-05-18T17:15:30.372Z,42.30
2019-05-18T17:17:56.586Z,42.40
2019-05-18T17:20:22.930Z,40.90
2019-05-18T17:22:49.197Z,41.40
2019-05-18T17:25:15.610Z,42.30
2019-05-18T17:27:41.919Z,41.80
2019-05-18T17:30:09.444Z,42.20
2019-05-18T17:32:35.698Z,41.70
2019-05-18T17:35:07.653Z,42.70
2019-05-18T17:37:34.081Z,42.40
2019-05-18T17:40:00.375Z,42.50
2019-05-18T17:42:26.617Z,42.40
2019-05-18T17:44:52.892Z,41.80
2019-05-18T17:47:19.280Z,42.00
2019-05-18T17:49:48.773Z,42.10
2019-05-18T17:52:15.000Z,42.20
2019-05-18T17:54:41.252Z,42.30
2019-05-18T17:57:09.081Z,42.70
2019-05-18T17:59:37.271Z,42.70
2019-05-18T18:02:03.657Z,43.10
2019-05-18T18:04:54.182Z,43.10
2019-05-18T18:07:20.001Z,43.40
2019-05-18T18:09:46.473Z,43.10
2019-05-18T18:12:12.751Z,43.30
2019-05-18T18:14:38.981Z,43.20
2019-05-18T18:17:05.295Z,43.20
2019-05-18T18:19:31.548Z,43.70
2019-05-18T18:21:57.797Z,44.00
2019-05-18T18:24:24.023Z,44.30
2019-05-18T18:27:34.019Z,44.50
2019-05-18T18:30:00.773Z,45.00
2019-05-18T18:32:27.019Z,45.00
2019-05-18T18:34:53.388Z,45.30
2019-05-18T18:37:20.019Z,45.60
2019-05-18T18:39:46.276Z,45.80
2019-05-18T18:42:12.477Z,46.50
2019-05-18T18:44:38.828Z,46.70
2019-05-18T18:47:05.102Z,47.40
2019-05-18T18:49:31.623Z,47.40
2019-05-18T18:52:04.866Z,47.40
2019-05-18T18:54:31.648Z,48.20
2019-05-18T18:56:57.980Z,48.40
2019-05-18T18:59:24.262Z,48.70
2019-05-18T19:02:43.117Z,49.00
2019-05-18T19:05:10.012Z,49.30
2019-05-18T19:07:36.288Z,50.20
2019-05-18T19:10:05.240Z,50.60
2019-05-18T19:12:31.815Z,50.90
2019-05-18T19:14:58.083Z,50.90
2019-05-18T19:17:24.342Z,51.30
2019-05-18T19:19:51.141Z,52.10
2019-05-18T19:22:22.247Z,53.20
2019-05-18T19:24:55.641Z,52.60
2019-05-18T19:27:20.856Z,52.00
2019-05-18T19:29:50.654Z,52.40
2019-05-18T19:32:17.432Z,53.10
2019-05-18T19:34:43.745Z,53.30
2019-05-18T19:37:09.995Z,54.20
2019-05-18T19:39:36.235Z,54.60
2019-05-18T19:42:02.519Z,55.10
2019-05-18T19:44:28.753Z,55.80
2019-05-18T19:46:54.981Z,56.60
2019-05-18T19:49:21.414Z,55.10
2019-05-18T19:51:47.654Z,55.10
2019-05-18T19:54:13.895Z,55.30
2019-05-18T19:56:42.631Z,55.70
2019-05-18T19:59:08.312Z,55.60
2019-05-18T20:01:34.631Z,56.50
2019-05-18T20:04:00.837Z,57.20
2019-05-18T20:06:27.126Z,56.40
2019-05-18T20:08:53.458Z,57.10
2019-05-18T20:11:19.700Z,57.10
2019-05-18T20:13:45.935Z,57.70
2019-05-18T20:16:12.172Z,59.40
2019-05-18T20:18:38.433Z,58.90
2019-05-18T20:21:06.123Z,59.50
2019-05-18T20:23:32.387Z,59.80
2019-05-18T20:25:58.874Z,60.30
2019-05-18T20:28:25.176Z,60.60
2019-05-18T20:30:51.425Z,60.70
2019-05-18T20:33:17.700Z,61.10
2019-05-18T20:35:43.954Z,61.20
2019-05-18T20:38:10.183Z,61.20
2019-05-18T20:40:36.657Z,61.60
2019-05-18T20:43:02.929Z,61.10
2019-05-18T20:45:29.164Z,62.00
2019-05-18T20:47:55.432Z,61.90
2019-05-18T20:50:21.662Z,62.00
2019-05-18T20:52:47.882Z,62.40
2019-05-18T20:55:15.899Z,63.10
2019-05-18T20:57:43.343Z,63.10
2019-05-18T21:00:10.181Z,63.00
2019-05-18T21:02:36.510Z,63.00
2019-05-18T21:05:04.475Z,63.40
2019-05-18T21:07:30.691Z,64.20
2019-05-18T21:09:56.931Z,64.80
2019-05-18T21:12:23.169Z,65.20
2019-05-18T21:14:49.398Z,62.90
2019-05-18T21:17:15.612Z,63.60
2019-05-18T21:19:41.956Z,63.10
2019-05-18T21:22:08.239Z,64.10
2019-05-18T21:24:35.214Z,64.90
2019-05-18T21:27:01.441Z,64.10
2019-05-18T21:29:27.687Z,63.40
2019-05-18T21:31:54.012Z,63.90
2019-05-18T21:34:20.249Z,64.30
2019-05-18T21:36:46.482Z,64.50
2019-05-18T21:39:12.771Z,64.50
2019-05-18T21:41:39.010Z,65.00
2019-05-18T21:44:05.229Z,65.30
2019-05-18T21:46:31.575Z,65.60
2019-05-18T21:48:57.856Z,66.00
2019-05-18T21:51:25.552Z,66.80
2019-05-18T21:53:51.810Z,66.60
2019-05-18T21:56:18.038Z,67.10
2019-05-18T21:58:44.306Z,67.40
2019-05-18T22:01:10.738Z,67.80
2019-05-18T22:03:36.953Z,68.50
2019-05-18T22:06:03.213Z,68.20
2019-05-18T22:08:29.454Z,68.70
2019-05-18T22:10:55.800Z,69.00
2019-05-18T22:13:22.044Z,69.50
2019-05-18T22:15:48.309Z,69.80
2019-05-18T22:18:24.015Z,70.40
2019-05-18T22:20:44.323Z,70.90
2019-05-18T22:23:10.762Z,72.00
2019-05-18T22:25:38.885Z,71.70
2019-05-18T22:28:06.702Z,72.20
2019-05-18T22:30:33.059Z,72.80
2019-05-18T22:32:59.380Z,73.20
2019-05-18T22:35:25.685Z,73.60
2019-05-18T22:37:52.021Z,73.90
2019-05-18T22:40:18.463Z,74.20
2019-05-18T22:42:45.059Z,74.40
2019-05-18T22:45:11.779Z,74.70
2019-05-18T22:47:38.622Z,75.00
2019-05-18T22:50:05.974Z,75.20
2019-05-18T22:52:32.182Z,75.30
2019-05-18T22:54:58.436Z,75.50
2019-05-18T22:57:24.692Z,75.70
2019-05-18T22:59:50.926Z,75.90
2019-05-18T23:02:17.144Z,76.10
2019-05-18T23:04:43.427Z,76.30
2019-05-18T23:07:09.657Z,76.50
2019-05-18T23:09:35.916Z,76.70
2019-05-18T23:12:02.154Z,76.90
2019-05-18T23:14:28.369Z,77.40
2019-05-18T23:16:54.616Z,77.90
2019-05-18T23:19:20.842Z,77.80
2019-05-18T23:21:47.089Z,78.10
2019-05-18T23:24:13.329Z,78.20
2019-05-18T23:26:39.539Z,78.40
2019-05-18T23:29:05.788Z,78.40
2019-05-18T23:31:32.005Z,78.80
2019-05-18T23:33:58.211Z,79.70
2019-05-18T23:36:24.457Z,79.40
2019-05-18T23:38:50.713Z,79.50
2019-05-18T23:41:16.948Z,79.70
2019-05-18T23:43:43.207Z,80.00
2019-05-18T23:46:09.417Z,80.30
2019-05-18T23:48:35.658Z,80.50
2019-05-18T23:51:01.886Z,80.80
2019-05-18T23:53:28.228Z,81.10
2019-05-18T23:55:54.496Z,81.20
2019-05-18T23:58:21.024Z,82.00
